Nipawin, Canada
Current Conditions -  °F | °C
As of 3:00 PM on Wednesday 22 Oct 2014 (Local Time) from CYBU Reporting Station
Light Rain Light Rain  
Wind Chill: 50°   Ceiling: 1100
Heat Index: 50°   Visibility: 9mi
Dew Point: 48°   Wind: 7mph
Humidity: 94%   Direction: 270°W
Pressure: 29.65"   Gusts: NA
Location:  53.37°N, 104.02°W
Report Text: CYBU 222100Z AUTO 27006KT 9SM -RA BKN011 OVC065 10/09 A2965 RMK SLP052
Loading
Personal Weather Stations






























Interactive Weather Map
Tropical Storm Tracking
New forecast layout! Learn more

10-Day Weather Forecast

Advertisements
Track Severe Weather on mobile